createdAt,value
2022-09-20T00:01:23.255Z,100809.91
2022-09-20T00:03:52.724Z,100818.00
2022-09-20T00:06:28.428Z,100820.25
2022-09-20T00:08:56.637Z,100820.31
2022-09-20T00:11:29.089Z,100821.53
2022-09-20T00:13:57.153Z,100835.47
2022-09-20T00:16:26.760Z,100830.88
2022-09-20T00:18:55.590Z,100833.59
2022-09-20T00:21:24.845Z,100832.53
2022-09-20T00:23:52.653Z,100836.88
2022-09-20T00:26:19.676Z,100837.72
2022-09-20T00:28:47.193Z,100835.81
2022-09-20T00:31:15.090Z,100843.09
2022-09-20T00:34:00.207Z,100839.34
2022-09-20T00:36:29.657Z,100841.81
2022-09-20T00:39:01.187Z,100835.97
2022-09-20T00:41:30.572Z,100826.69
2022-09-20T00:43:57.739Z,100836.06
2022-09-20T00:46:39.895Z,100830.09
2022-09-20T00:49:14.853Z,100827.72
2022-09-20T00:51:45.630Z,100838.75
2022-09-20T00:54:19.419Z,100841.91
2022-09-20T00:56:46.929Z,100844.84
2022-09-20T00:59:27.706Z,100846.28
2022-09-20T01:02:00.973Z,100846.75
2022-09-20T01:04:28.934Z,100836.44
2022-09-20T01:07:05.933Z,100843.59
2022-09-20T01:09:32.430Z,100840.78
2022-09-20T01:12:03.966Z,100840.09
2022-09-20T01:14:30.889Z,100840.78
2022-09-20T01:17:02.626Z,100843.25
2022-09-20T01:19:47.760Z,100839.28
2022-09-20T01:22:46.574Z,100830.88
2022-09-20T01:25:44.039Z,100842.56
2022-09-20T01:28:10.571Z,100838.50
2022-09-20T01:30:43.867Z,100840.16
2022-09-20T01:33:21.819Z,100834.53
2022-09-20T01:35:51.389Z,100844.84
2022-09-20T01:38:35.174Z,100848.25
2022-09-20T01:41:12.514Z,100848.94
2022-09-20T01:44:06.967Z,100852.63
2022-09-20T01:46:35.894Z,100850.06
2022-09-20T01:49:25.790Z,100851.41
2022-09-20T01:52:29.995Z,100853.66
2022-09-20T01:55:27.243Z,100850.56
2022-09-20T01:58:21.638Z,100852.06
2022-09-20T02:01:24.301Z,100852.22
2022-09-20T02:04:02.723Z,100844.44
2022-09-20T02:06:50.675Z,100848.66
2022-09-20T02:09:26.026Z,100864.75
2022-09-20T02:12:14.447Z,100859.28
2022-09-20T02:15:05.562Z,100859.34
2022-09-20T02:17:32.119Z,100853.00
2022-09-20T02:19:58.505Z,100858.97
2022-09-20T02:22:36.782Z,100860.56
2022-09-20T02:25:21.685Z,100862.22
2022-09-20T02:28:03.327Z,100860.31
2022-09-20T02:30:44.756Z,100857.72
2022-09-20T02:33:18.192Z,100865.50
2022-09-20T02:36:10.526Z,100866.25
2022-09-20T02:38:37.678Z,100866.75
2022-09-20T02:41:51.199Z,100866.53
2022-09-20T02:44:33.753Z,100865.66
2022-09-20T02:47:10.073Z,100864.22
2022-09-20T02:49:43.148Z,100867.44
2022-09-20T02:52:36.583Z,100871.94
2022-09-20T02:55:35.797Z,100872.75
2022-09-20T02:58:13.952Z,100873.72
2022-09-20T03:00:53.703Z,100878.25
2022-09-20T03:03:36.505Z,100874.59
2022-09-20T03:06:23.021Z,100875.22
2022-09-20T03:09:01.132Z,100875.53
2022-09-20T03:11:47.317Z,100877.41
2022-09-20T03:14:31.053Z,100879.06
2022-09-20T03:17:12.589Z,100884.53
2022-09-20T03:20:06.329Z,100879.44
2022-09-20T03:22:47.757Z,100879.28
2022-09-20T03:25:39.147Z,100879.91
2022-09-20T03:28:33.260Z,100887.06
2022-09-20T03:31:05.681Z,100880.31
2022-09-20T03:33:41.149Z,100882.78
2022-09-20T03:36:34.706Z,100879.44
2022-09-20T03:39:07.169Z,100882.06
2022-09-20T03:41:52.338Z,100885.56
2022-09-20T03:44:36.737Z,100883.88
2022-09-20T03:47:22.374Z,100888.41
2022-09-20T03:50:19.229Z,100888.56
2022-09-20T03:52:54.458Z,100890.53
2022-09-20T03:55:42.418Z,100892.09
2022-09-20T03:58:40.478Z,100886.91
2022-09-20T04:01:16.405Z,100882.44
2022-09-20T04:03:56.176Z,100897.06
2022-09-20T04:06:41.770Z,100900.88
2022-09-20T04:09:47.524Z,100889.75
2022-09-20T04:12:30.837Z,100898.16
2022-09-20T04:15:03.641Z,100906.41
2022-09-20T04:17:45.441Z,100902.47
2022-09-20T04:20:21.900Z,100902.72
2022-09-20T04:22:53.458Z,100904.91
2022-09-20T04:25:44.266Z,100901.94
2022-09-20T04:28:35.811Z,100895.72
2022-09-20T04:31:14.727Z,100895.84
2022-09-20T04:33:45.273Z,100898.22
2022-09-20T04:36:31.852Z,100908.25
2022-09-20T04:39:19.302Z,100905.44
2022-09-20T04:42:15.475Z,100908.16
2022-09-20T04:45:09.069Z,100902.94
2022-09-20T04:48:13.374Z,100907.81
2022-09-20T04:51:10.929Z,100909.78
2022-09-20T04:54:15.049Z,100914.97
2022-09-20T04:57:20.582Z,100919.66
2022-09-20T05:00:12.875Z,100914.00
2022-09-20T05:03:04.135Z,100929.03
2022-09-20T05:05:35.854Z,100932.19
2022-09-20T05:08:24.547Z,100926.44
2022-09-20T05:11:06.832Z,100927.09
2022-09-20T05:14:19.550Z,100932.03
2022-09-20T05:17:14.860Z,100938.25
2022-09-20T05:20:10.626Z,100937.50
2022-09-20T05:23:15.375Z,100939.50
2022-09-20T05:26:03.440Z,100940.69
2022-09-20T05:28:45.328Z,100945.84
2022-09-20T05:31:30.987Z,100945.94
2022-09-20T05:34:32.305Z,100951.34
2022-09-20T05:37:14.413Z,100956.91
2022-09-20T05:39:52.388Z,100955.25
2022-09-20T05:42:27.637Z,100952.06
2022-09-20T05:45:15.759Z,100951.44
2022-09-20T05:48:20.734Z,100955.72
2022-09-20T05:51:01.886Z,100961.44
2022-09-20T05:53:56.507Z,100961.44
2022-09-20T05:57:00.671Z,100966.97
2022-09-20T05:59:47.724Z,100961.28
2022-09-20T06:02:34.960Z,100973.44
2022-09-20T06:05:10.745Z,100966.28
2022-09-20T06:07:52.563Z,100969.16
2022-09-20T06:10:41.737Z,100976.59
2022-09-20T06:13:20.742Z,100982.66
2022-09-20T06:15:58.137Z,100990.00
2022-09-20T06:18:32.261Z,100981.22
2022-09-20T06:21:25.522Z,100990.66
2022-09-20T06:23:58.481Z,100982.06
2022-09-20T06:26:29.394Z,100987.88
2022-09-20T06:29:03.459Z,100986.63
2022-09-20T06:31:29.966Z,100989.16
2022-09-20T06:34:05.579Z,100996.38
2022-09-20T06:36:56.408Z,100983.34
2022-09-20T06:39:56.749Z,100988.19
2022-09-20T06:42:27.053Z,100996.22
2022-09-20T06:44:54.135Z,100999.97
2022-09-20T06:47:21.803Z,101005.34
2022-09-20T06:49:49.982Z,101009.72
2022-09-20T06:52:21.988Z,101013.63
2022-09-20T06:54:51.862Z,101020.28
2022-09-20T06:57:23.493Z,101019.25
2022-09-20T06:59:49.987Z,101027.56
2022-09-20T07:02:16.570Z,101019.47
2022-09-20T07:04:43.666Z,101021.78
2022-09-20T07:07:16.596Z,101027.66
2022-09-20T07:09:43.037Z,101024.63
2022-09-20T07:12:12.437Z,101029.81
2022-09-20T07:14:39.369Z,101034.84
2022-09-20T07:17:06.596Z,101039.19
2022-09-20T07:19:33.918Z,101029.22
2022-09-20T07:22:00.376Z,101037.31
2022-09-20T07:24:26.782Z,101035.22
2022-09-20T07:26:58.607Z,101042.41
2022-09-20T07:29:25.757Z,101047.44
2022-09-20T07:31:53.085Z,101048.88
2022-09-20T07:34:20.345Z,101048.88
2022-09-20T07:36:51.298Z,101055.03
2022-09-20T07:39:18.547Z,101051.72
2022-09-20T07:41:48.598Z,101045.06
2022-09-20T07:44:22.172Z,101055.38
2022-09-20T07:46:49.827Z,101054.75
2022-09-20T07:49:16.470Z,101052.63
2022-09-20T07:51:42.895Z,101054.53
2022-09-20T07:54:09.447Z,101048.88
2022-09-20T07:56:36.234Z,101054.47
2022-09-20T07:59:02.706Z,101058.13
2022-09-20T08:01:29.522Z,101063.44
2022-09-20T08:03:57.421Z,101061.94
2022-09-20T08:06:24.134Z,101063.97
2022-09-20T08:08:51.673Z,101068.69
2022-09-20T08:11:21.748Z,101069.63
2022-09-20T08:14:07.132Z,101072.50
2022-09-20T08:16:39.780Z,101077.59
2022-09-20T08:19:06.406Z,101081.13
2022-09-20T08:21:33.930Z,101068.41
2022-09-20T08:24:01.017Z,101086.81
2022-09-20T08:26:31.108Z,101086.81
2022-09-20T08:28:59.280Z,101088.44
2022-09-20T08:31:31.491Z,101085.75
2022-09-20T08:33:59.066Z,101088.44
2022-09-20T08:36:26.509Z,101093.84
2022-09-20T08:41:51.329Z,101101.56
2022-09-20T08:44:35.498Z,101102.00
2022-09-20T08:47:16.038Z,101101.78
2022-09-20T08:49:46.103Z,101107.66
2022-09-20T08:52:19.347Z,101109.47
2022-09-20T08:54:45.954Z,101108.25
2022-09-20T08:57:17.231Z,101103.19
2022-09-20T08:59:44.629Z,101103.56
2022-09-20T09:02:20.460Z,101104.31
2022-09-20T09:04:48.775Z,101109.38
2022-09-20T09:07:20.961Z,101111.97
2022-09-20T09:09:50.032Z,101106.69
2022-09-20T09:12:24.949Z,101106.50
2022-09-20T09:14:57.296Z,101106.19
2022-09-20T09:17:29.148Z,101102.34
2022-09-20T09:20:07.204Z,101101.16
2022-09-20T09:22:42.705Z,101095.75
2022-09-20T09:25:14.885Z,101099.28
2022-09-20T09:28:01.366Z,101098.56
2022-09-20T09:30:36.229Z,101091.56
2022-09-20T09:33:21.059Z,101094.28
2022-09-20T09:35:55.676Z,101099.09
2022-09-20T09:38:26.002Z,101103.06
2022-09-20T09:41:05.278Z,101104.53
2022-09-20T09:43:35.526Z,101096.06
2022-09-20T09:46:24.152Z,101102.28
2022-09-20T09:49:18.474Z,101103.69
2022-09-20T09:52:06.456Z,101102.28
2022-09-20T09:54:37.430Z,101101.25
2022-09-20T09:57:20.657Z,101110.19
2022-09-20T10:00:22.015Z,101100.31
2022-09-20T10:03:13.036Z,101102.16
2022-09-20T10:06:11.362Z,101106.56
2022-09-20T10:08:59.529Z,101100.16
2022-09-20T10:11:58.601Z,101107.91
2022-09-20T10:14:38.379Z,101113.69
2022-09-20T10:17:16.699Z,101116.22
2022-09-20T10:20:01.952Z,101104.94
2022-09-20T10:22:40.651Z,101104.25
2022-09-20T10:25:19.896Z,101108.19
2022-09-20T10:28:30.607Z,101107.56
2022-09-20T10:31:28.866Z,101107.38
2022-09-20T10:34:02.307Z,101102.25
2022-09-20T10:36:58.057Z,101107.34
2022-09-20T10:39:36.401Z,101105.44
2022-09-20T10:42:27.575Z,101102.97
2022-09-20T10:45:34.925Z,101106.66
2022-09-20T10:48:13.144Z,101104.81
2022-09-20T10:50:48.878Z,101111.91
2022-09-20T10:53:49.183Z,101113.94
2022-09-20T10:56:29.188Z,101112.03
2022-09-20T10:59:23.324Z,101116.72
2022-09-20T11:02:08.155Z,101118.22
2022-09-20T11:04:45.960Z,101117.34
2022-09-20T11:07:33.921Z,101116.97
2022-09-20T11:10:31.175Z,101124.63
2022-09-20T11:13:16.468Z,101119.75
2022-09-20T11:16:26.289Z,101121.09
2022-09-20T11:19:23.504Z,101118.03
2022-09-20T11:22:17.367Z,101111.00
2022-09-20T11:24:48.032Z,101114.94
2022-09-20T11:27:20.821Z,101117.59
2022-09-20T11:30:04.983Z,101115.63
2022-09-20T11:32:42.405Z,101119.56
2022-09-20T11:35:11.812Z,101121.34
2022-09-20T11:37:45.437Z,101120.41
2022-09-20T11:40:14.741Z,101121.34
2022-09-20T11:42:42.160Z,101117.34
2022-09-20T11:45:12.536Z,101113.34
2022-09-20T11:47:55.374Z,101117.53
2022-09-20T11:50:56.617Z,101127.75
2022-09-20T11:53:52.917Z,101119.91
2022-09-20T11:56:20.927Z,101123.81
2022-09-20T11:58:49.981Z,101111.59
2022-09-20T12:01:28.561Z,101122.28
2022-09-20T12:04:28.279Z,101115.47
2022-09-20T12:07:08.888Z,101112.47
2022-09-20T12:09:40.389Z,101112.72
2022-09-20T12:12:32.235Z,101110.53
2022-09-20T12:15:02.198Z,101118.78
2022-09-20T12:17:47.124Z,101109.47
2022-09-20T16:31:42.292Z,101178.72
2022-09-20T16:34:19.261Z,101188.91
2022-09-20T16:36:47.276Z,101183.59
2022-09-20T16:39:14.746Z,101188.19
2022-09-20T16:41:41.859Z,101186.25
2022-09-20T16:44:08.866Z,101188.66
2022-09-20T16:46:38.694Z,101193.22
2022-09-20T16:49:09.198Z,101192.09
2022-09-20T16:51:37.667Z,101192.78
2022-09-20T16:54:12.350Z,101202.28
2022-09-20T16:56:41.402Z,101199.97
2022-09-20T16:59:08.207Z,101203.66
2022-09-20T17:01:36.966Z,101204.28
2022-09-20T17:04:08.350Z,101211.03
2022-09-20T17:06:37.116Z,101210.63
2022-09-20T17:09:05.059Z,101215.91
2022-09-20T17:11:37.245Z,101217.75
2022-09-20T17:14:05.248Z,101226.00
2022-09-20T17:16:37.086Z,101225.44
2022-09-20T17:19:09.428Z,101230.13
2022-09-20T17:21:38.369Z,101219.13
2022-09-20T17:24:07.147Z,101228.50
2022-09-20T17:26:40.297Z,101226.03
2022-09-20T17:29:09.993Z,101233.38
2022-09-20T17:31:39.661Z,101239.81
2022-09-20T17:34:09.581Z,101241.28
2022-09-20T17:36:44.427Z,101239.38
2022-09-20T17:39:12.996Z,101250.81
2022-09-20T17:41:41.256Z,101253.44
2022-09-20T17:44:09.969Z,101258.19
2022-09-20T17:46:38.528Z,101262.47
2022-09-20T17:49:07.644Z,101261.28
2022-09-20T17:51:37.115Z,101263.09
2022-09-20T17:54:04.324Z,101277.41
2022-09-20T17:56:31.323Z,101278.09
2022-09-20T17:58:59.274Z,101272.56
2022-09-20T18:01:27.355Z,101279.53
2022-09-20T18:03:56.277Z,101286.53
2022-09-20T18:06:31.836Z,101281.19
2022-09-20T18:09:06.800Z,101283.56
2022-09-20T18:11:41.989Z,101282.38
2022-09-20T18:14:13.490Z,101288.06
2022-09-20T18:16:40.428Z,101291.75
2022-09-20T18:19:08.474Z,101297.63
2022-09-20T18:21:36.462Z,101296.94
2022-09-20T18:24:07.125Z,101302.38
2022-09-20T18:26:34.790Z,101303.19
2022-09-20T18:29:02.908Z,101311.81
2022-09-20T18:31:36.162Z,101310.63
2022-09-20T18:34:07.724Z,101310.88
2022-09-20T18:36:37.301Z,101306.84
2022-09-20T18:39:04.005Z,101314.50
2022-09-20T18:41:33.457Z,101317.69
2022-09-20T18:44:02.049Z,101330.06
2022-09-20T18:46:30.879Z,101331.00
2022-09-20T18:49:04.959Z,101332.66
2022-09-20T18:51:35.853Z,101333.44
2022-09-20T18:54:05.871Z,101337.66
2022-09-20T18:56:34.757Z,101342.50
2022-09-20T18:59:04.294Z,101340.47
2022-09-20T19:02:01.098Z,101337.88
2022-09-20T19:04:36.249Z,101349.16
2022-09-20T19:07:21.108Z,101354.44
2022-09-20T19:10:26.200Z,101352.59
2022-09-20T19:12:55.370Z,101361.72
2022-09-20T19:15:47.123Z,101370.13
2022-09-20T19:18:24.195Z,101363.81
2022-09-20T19:21:07.367Z,101370.75
2022-09-20T19:24:02.383Z,101371.06
2022-09-20T19:26:31.739Z,101377.72
2022-09-20T19:29:00.174Z,101391.09
2022-09-20T19:31:32.553Z,101388.22
2022-09-20T19:34:03.064Z,101378.34
2022-09-20T19:36:39.739Z,101383.75
2022-09-20T19:39:32.515Z,101395.94
2022-09-20T19:42:20.562Z,101392.19
2022-09-20T19:45:01.316Z,101387.88
2022-09-20T19:47:48.589Z,101385.84
2022-09-20T19:50:52.577Z,101397.03
2022-09-20T19:53:22.378Z,101399.31
2022-09-20T19:55:55.283Z,101403.28
2022-09-20T19:58:22.872Z,101406.97
2022-09-20T20:00:49.723Z,101412.44
2022-09-20T20:03:16.988Z,101407.09
2022-09-20T20:06:07.880Z,101402.44
2022-09-20T20:08:40.579Z,101406.69
2022-09-20T20:11:13.531Z,101405.72
2022-09-20T20:14:04.146Z,101410.09
2022-09-20T20:16:43.416Z,101410.19
2022-09-20T20:19:36.151Z,101409.06
2022-09-20T20:22:24.271Z,101408.53
2022-09-20T20:24:52.155Z,101411.75
2022-09-20T20:27:19.899Z,101412.88
2022-09-20T20:29:46.612Z,101417.88
2022-09-20T20:32:13.327Z,101426.84
2022-09-20T20:34:39.862Z,101412.91
2022-09-20T20:37:07.302Z,101417.91
2022-09-20T20:39:34.458Z,101415.47
2022-09-20T20:42:02.858Z,101425.47
2022-09-20T20:44:35.671Z,101424.44
2022-09-20T20:47:03.472Z,101428.88
2022-09-20T20:49:30.257Z,101434.91
2022-09-20T20:51:57.469Z,101429.31
2022-09-20T20:54:24.549Z,101432.69
2022-09-20T20:56:51.022Z,101440.59
2022-09-20T20:59:18.160Z,101448.06
2022-09-20T21:01:47.454Z,101442.50
2022-09-20T21:04:15.709Z,101451.63
2022-09-20T21:06:42.338Z,101436.03
2022-09-20T21:09:09.801Z,101439.63
2022-09-20T21:11:44.478Z,101447.59
2022-09-20T21:14:12.856Z,101447.16
2022-09-20T21:16:45.528Z,101452.94
2022-09-20T21:19:18.179Z,101451.00
2022-09-20T21:21:47.820Z,101452.41
2022-09-20T21:24:17.281Z,101456.19
2022-09-20T21:26:44.519Z,101460.69
2022-09-20T21:29:12.459Z,101458.81
2022-09-20T21:31:41.406Z,101460.03
2022-09-20T21:34:10.314Z,101456.88
2022-09-20T21:36:38.161Z,101457.28
2022-09-20T21:39:05.631Z,101453.09
2022-09-20T21:41:34.336Z,101463.47
2022-09-20T21:44:02.801Z,101455.97
2022-09-20T21:46:32.629Z,101463.41
2022-09-20T21:49:01.424Z,101462.59
2022-09-20T21:51:31.107Z,101465.88
2022-09-20T21:53:59.679Z,101474.63
2022-09-20T21:56:28.342Z,101476.06
2022-09-20T21:58:55.356Z,101473.13
2022-09-20T22:01:24.790Z,101471.03
2022-09-20T22:03:54.885Z,101471.66
2022-09-20T22:06:23.259Z,101476.25
2022-09-20T22:09:01.198Z,101476.81
2022-09-20T22:11:31.086Z,101480.81
2022-09-20T22:13:58.039Z,101487.47
2022-09-20T22:16:28.962Z,101483.56
2022-09-20T22:18:56.195Z,101481.94
2022-09-20T22:21:28.354Z,101487.16
2022-09-20T22:23:57.646Z,101488.44
2022-09-20T22:26:26.498Z,101490.75
2022-09-20T22:28:52.996Z,101489.09
2022-09-20T22:31:22.760Z,101491.34
2022-09-20T22:33:52.191Z,101494.28
2022-09-20T22:36:25.741Z,101493.63
2022-09-20T22:38:53.415Z,101489.09
2022-09-20T22:41:20.824Z,101491.19
2022-09-20T22:43:47.675Z,101489.53
2022-09-20T22:46:16.567Z,101479.75
2022-09-20T22:48:43.814Z,101491.84
2022-09-20T22:51:28.610Z,101487.38
2022-09-20T22:53:55.248Z,101481.84
2022-09-20T22:56:24.092Z,101487.88
2022-09-20T22:58:53.016Z,101490.34
2022-09-20T23:01:25.447Z,101491.84
2022-09-20T23:03:57.879Z,101488.91
2022-09-20T23:06:40.324Z,101500.16
2022-09-20T23:09:10.102Z,101492.50
2022-09-20T23:11:37.624Z,101495.59
2022-09-20T23:14:06.042Z,101495.59
2022-09-20T23:16:35.771Z,101494.34
2022-09-20T23:19:03.785Z,101499.97
2022-09-20T23:21:31.207Z,101496.44
2022-09-20T23:23:59.865Z,101512.22
2022-09-20T23:26:28.088Z,101504.34
2022-09-20T23:29:00.234Z,101506.81
2022-09-20T23:31:28.076Z,101504.78
2022-09-20T23:34:00.138Z,101508.09
2022-09-20T23:36:29.204Z,101503.53
2022-09-20T23:38:56.949Z,101496.91
2022-09-20T23:41:26.203Z,101509.78
2022-09-20T23:43:52.734Z,101510.41
2022-09-20T23:46:21.104Z,101509.81
2022-09-20T23:48:48.084Z,101504.44
2022-09-20T23:51:16.577Z,101503.00
2022-09-20T23:53:43.788Z,101509.88
2022-09-20T23:56:12.213Z,101501.97
2022-09-20T23:58:41.313Z,101506.75
